Time;durP1;ratioP1;P1;durP2;ratioP2;P2;SDS_P1;SDS_P2;PMS_P1;PMS_P2;Temp;Humidity;BMP_temperature;BMP_pressure;BME280_temperature;BME280_humidity;BME280_pressure;Samples;Min_cycle;Max_cycle;Signal;HPM_P1;HPM_P2
2021/08/13 00:00:39;;;;;;;2.57;2.37;;;16.90;99.90;;;;;;4967778;28;20414;-76
2021/08/13 00:03:04;;;;;;;5.07;2.70;;;16.90;99.90;;;;;;4953935;28;20399;-75
2021/08/13 00:05:30;;;;;;;2.50;2.30;;;16.90;99.90;;;;;;4973134;28;20398;-76
2021/08/13 00:07:56;;;;;;;2.60;2.40;;;16.90;99.90;;;;;;4952861;28;20982;-75
2021/08/13 00:10:21;;;;;;;2.87;2.67;;;16.90;99.90;;;;;;4965642;28;20892;-76
2021/08/13 00:12:47;;;;;;;2.47;2.30;;;16.90;99.90;;;;;;4960675;28;20422;-76
2021/08/13 00:15:13;;;;;;;5.00;2.70;;;16.90;99.90;;;;;;4993663;28;20452;-76
2021/08/13 00:17:38;;;;;;;4.13;2.50;;;16.90;99.90;;;;;;4972086;28;20427;-76
2021/08/13 00:20:05;;;;;;;2.47;2.28;;;16.90;99.90;;;;;;4987599;28;20479;-77
2021/08/13 00:22:30;;;;;;;2.92;2.60;;;16.90;99.90;;;;;;4964872;28;20477;-76
2021/08/13 00:24:56;;;;;;;3.00;2.27;;;16.90;99.90;;;;;;4912980;28;20487;-76
2021/08/13 00:27:22;;;;;;;2.60;2.40;;;17.00;99.90;;;;;;4971934;28;20401;-76
2021/08/13 00:29:47;;;;;;;2.70;2.50;;;17.00;99.90;;;;;;4972249;28;20769;-76
2021/08/13 00:32:14;;;;;;;2.50;2.30;;;17.00;99.90;;;;;;4947965;28;20407;-76
2021/08/13 00:34:41;;;;;;;2.70;2.50;;;17.00;99.90;;;;;;4953082;28;20395;-76
2021/08/13 00:37:07;;;;;;;2.63;2.42;;;17.00;99.90;;;;;;4952810;28;20962;-76
2021/08/13 00:39:33;;;;;;;2.53;2.43;;;16.90;99.90;;;;;;4979849;28;20392;-76
2021/08/13 00:41:59;;;;;;;3.10;2.90;;;17.00;99.90;;;;;;4971305;28;20400;-76
2021/08/13 00:44:25;;;;;;;2.33;2.13;;;17.00;99.90;;;;;;4972070;28;20428;-76
2021/08/13 00:46:51;;;;;;;3.08;2.88;;;17.00;99.90;;;;;;4969626;28;20455;-76
2021/08/13 00:49:27;;;;;;;3.97;2.57;;;17.00;99.90;;;;;;4971860;28;20393;-76
2021/08/13 00:52:06;;;;;;;2.60;2.40;;;17.00;99.90;;;;;;4982930;28;20396;-76
2021/08/13 00:54:34;;;;;;;3.00;2.80;;;17.00;99.90;;;;;;4958200;28;20388;-76
2021/08/13 00:57:01;;;;;;;2.80;2.60;;;17.00;99.90;;;;;;4956158;28;20433;-76
2021/08/13 00:59:29;;;;;;;2.70;2.50;;;17.00;99.90;;;;;;4987634;28;20397;-76
2021/08/13 01:02:14;;;;;;;2.88;2.67;;;17.00;99.90;;;;;;4961564;28;20401;-76
2021/08/13 01:04:43;;;;;;;2.95;2.75;;;17.00;99.90;;;;;;4955491;28;20396;-76
2021/08/13 01:07:17;;;;;;;2.60;2.40;;;17.00;99.90;;;;;;4973363;28;20719;-76
2021/08/13 01:09:43;;;;;;;2.80;2.60;;;17.00;99.90;;;;;;4948164;28;20415;-77
2021/08/13 01:12:32;;;;;;;2.60;2.40;;;17.00;99.90;;;;;;5000726;28;20392;-77
2021/08/13 01:15:06;;;;;;;2.35;2.25;;;17.00;99.90;;;;;;4968464;28;20406;-76
2021/08/13 01:17:44;;;;;;;2.35;2.15;;;17.00;99.90;;;;;;4967356;28;21441;-76
2021/08/13 01:20:37;;;;;;;2.85;2.65;;;16.90;99.90;;;;;;4950339;28;20417;-76
2021/08/13 01:23:10;;;;;;;2.28;2.17;;;16.90;99.90;;;;;;5000086;28;20391;-76
2021/08/13 01:25:38;;;;;;;2.60;2.40;;;16.90;99.90;;;;;;4967954;28;20787;-76
2021/08/13 01:28:30;;;;;;;2.70;2.50;;;16.90;99.90;;;;;;4951228;28;20407;-76
2021/08/13 01:30:57;;;;;;;2.30;2.20;;;17.00;99.90;;;;;;5005325;28;20406;-76
2021/08/13 01:33:23;;;;;;;2.80;2.60;;;17.00;99.90;;;;;;4981431;28;20404;-76
2021/08/13 01:35:49;;;;;;;2.87;2.63;;;16.90;99.90;;;;;;4953301;28;20500;-76
2021/08/13 01:38:26;;;;;;;3.00;2.72;;;16.90;99.90;;;;;;4970265;28;20467;-76
2021/08/13 01:41:00;;;;;;;3.00;2.80;;;16.90;99.90;;;;;;4958248;28;20396;-76
2021/08/13 01:43:27;;;;;;;2.60;2.40;;;16.90;99.90;;;;;;4954886;28;20411;-76
2021/08/13 01:45:56;;;;;;;2.63;2.42;;;16.90;99.90;;;;;;4968233;28;20397;-76
2021/08/13 01:48:23;;;;;;;2.67;2.47;;;16.90;99.90;;;;;;4987223;28;21121;-77
2021/08/13 01:50:49;;;;;;;2.60;2.40;;;16.90;99.90;;;;;;4971387;28;20397;-76
2021/08/13 01:53:16;;;;;;;2.55;2.40;;;16.90;99.90;;;;;;4972065;28;20901;-76
2021/08/13 01:55:45;;;;;;;3.05;2.80;;;16.90;99.90;;;;;;4971460;28;20400;-76
2021/08/13 01:58:12;;;;;;;2.65;2.45;;;16.90;99.90;;;;;;4970750;28;20395;-77
2021/08/13 02:00:38;;;;;;;2.37;2.17;;;16.90;99.90;;;;;;4953519;28;20405;-77
2021/08/13 02:03:06;;;;;;;2.50;2.30;;;16.80;99.90;;;;;;4970518;28;20408;-76
2021/08/13 02:05:33;;;;;;;3.00;2.70;;;16.80;99.90;;;;;;4968956;28;20883;-76
2021/08/13 02:08:02;;;;;;;2.80;2.58;;;16.80;99.90;;;;;;4970605;28;20408;-77
2021/08/13 02:10:31;;;;;;;2.47;2.23;;;16.80;99.90;;;;;;4970757;28;20475;-77
2021/08/13 02:12:57;;;;;;;2.88;2.67;;;16.80;99.90;;;;;;4969141;28;20806;-77
2021/08/13 02:15:23;;;;;;;2.80;2.60;;;16.80;99.90;;;;;;4984304;28;20426;-77
2021/08/13 02:18:04;;;;;;;2.63;2.43;;;16.80;99.90;;;;;;4931603;28;20428;-77
2021/08/13 02:20:36;;;;;;;2.80;2.60;;;16.80;99.90;;;;;;4944521;28;22015;-77
2021/08/13 02:23:03;;;;;;;2.40;2.28;;;16.70;99.90;;;;;;4969057;28;20938;-77
2021/08/13 02:25:30;;;;;;;2.50;2.30;;;16.70;99.90;;;;;;5017792;28;20420;-76
2021/08/13 02:27:57;;;;;;;2.85;2.63;;;16.70;99.90;;;;;;4966619;28;20529;-76
2021/08/13 02:30:23;;;;;;;2.70;2.50;;;16.70;99.90;;;;;;4949663;28;20429;-77
2021/08/13 02:32:49;;;;;;;2.60;2.40;;;16.60;99.90;;;;;;4978383;28;20407;-77
2021/08/13 02:35:17;;;;;;;3.20;2.70;;;16.60;99.90;;;;;;4969905;28;20397;-76
2021/08/13 02:38:06;;;;;;;2.97;2.77;;;16.50;99.90;;;;;;4969456;28;20401;-76
2021/08/13 02:40:33;;;;;;;2.55;2.35;;;16.50;99.90;;;;;;4974406;28;20408;-77
2021/08/13 02:43:38;;;;;;;2.45;2.25;;;16.50;99.90;;;;;;4966635;28;20426;-77
2021/08/13 02:46:05;;;;;;;2.50;2.30;;;16.50;99.90;;;;;;4997015;28;20398;-76
2021/08/13 02:48:34;;;;;;;2.67;2.47;;;16.50;99.90;;;;;;4982699;28;20441;-77
2021/08/13 02:51:01;;;;;;;2.42;2.22;;;16.50;99.90;;;;;;4983959;28;20879;-77
2021/08/13 02:53:27;;;;;;;2.75;2.55;;;16.40;99.90;;;;;;4985619;28;20401;-77
2021/08/13 02:56:02;;;;;;;2.55;2.15;;;16.40;99.90;;;;;;4969960;28;20471;-76
2021/08/13 02:58:50;;;;;;;2.35;2.20;;;16.40;99.90;;;;;;4961471;28;20407;-76
2021/08/13 03:01:18;;;;;;;2.47;2.28;;;16.40;99.90;;;;;;4964987;28;20409;-77
2021/08/13 03:03:44;;;;;;;3.08;2.88;;;16.40;99.90;;;;;;4954809;28;20402;-77
2021/08/13 03:06:11;;;;;;;3.25;3.03;;;16.40;99.90;;;;;;4954750;28;20398;-77
2021/08/13 03:08:41;;;;;;;2.83;2.63;;;16.40;99.90;;;;;;4956503;28;20447;-77
2021/08/13 03:11:07;;;;;;;2.88;2.60;;;16.40;99.90;;;;;;4954984;28;20840;-76
2021/08/13 03:13:33;;;;;;;2.90;2.70;;;16.30;99.90;;;;;;4971186;28;20398;-76
2021/08/13 03:15:59;;;;;;;2.70;2.50;;;16.30;99.90;;;;;;4971199;28;20681;-77
2021/08/13 03:18:33;;;;;;;2.88;2.67;;;16.30;99.90;;;;;;4955394;28;20405;-77
2021/08/13 03:20:58;;;;;;;2.53;2.33;;;16.30;99.90;;;;;;4990189;28;20390;-76
2021/08/13 03:23:24;;;;;;;2.60;2.40;;;16.30;99.90;;;;;;4978282;28;20390;-80
2021/08/13 03:25:51;;;;;;;3.10;2.63;;;16.30;99.90;;;;;;4959381;28;20422;-76
2021/08/13 03:28:20;;;;;;;4.00;2.92;;;16.30;99.90;;;;;;4969348;28;20401;-77
2021/08/13 03:30:48;;;;;;;3.03;2.72;;;16.20;99.90;;;;;;4967209;28;20478;-77
2021/08/13 03:33:21;;;;;;;2.85;2.60;;;16.20;99.90;;;;;;4988958;28;20401;-77
2021/08/13 03:35:47;;;;;;;2.60;2.40;;;16.20;99.90;;;;;;4972440;28;20415;-77
2021/08/13 03:38:13;;;;;;;4.45;2.65;;;16.20;99.90;;;;;;4972421;28;20476;-77
2021/08/13 03:40:41;;;;;;;3.00;2.80;;;16.20;99.90;;;;;;4973972;28;20416;-77
2021/08/13 03:43:06;;;;;;;2.57;2.37;;;16.10;99.90;;;;;;4969650;28;20406;-77
2021/08/13 03:45:33;;;;;;;3.30;2.50;;;16.10;99.90;;;;;;4970803;28;20404;-77
2021/08/13 03:48:00;;;;;;;2.33;2.22;;;16.10;99.90;;;;;;4973063;28;20904;-77
2021/08/13 03:50:26;;;;;;;2.80;2.60;;;16.10;99.90;;;;;;4958518;28;20389;-77
2021/08/13 03:52:52;;;;;;;2.80;2.60;;;16.10;99.90;;;;;;4990561;28;20409;-77
2021/08/13 03:55:18;;;;;;;3.00;2.80;;;16.10;99.90;;;;;;5004928;28;20396;-77
2021/08/13 03:57:44;;;;;;;2.92;2.70;;;16.00;99.90;;;;;;4973059;28;20431;-77
2021/08/13 04:00:10;;;;;;;2.58;2.38;;;16.00;99.90;;;;;;4958519;28;20397;-77
2021/08/13 04:02:47;;;;;;;3.05;2.78;;;16.00;99.90;;;;;;4962507;28;20408;-76
2021/08/13 04:05:18;;;;;;;3.17;2.70;;;16.00;99.90;;;;;;4975450;28;20503;-77
2021/08/13 04:07:44;;;;;;;2.70;2.50;;;15.90;99.90;;;;;;4958642;28;20502;-76
2021/08/13 04:10:10;;;;;;;2.70;2.50;;;16.00;99.90;;;;;;4971800;28;20930;-77
2021/08/13 04:12:37;;;;;;;2.78;2.58;;;15.90;99.90;;;;;;4987327;28;20486;-77
2021/08/13 04:15:16;;;;;;;3.60;2.83;;;15.90;99.90;;;;;;4975062;28;20424;-77
2021/08/13 04:17:41;;;;;;;3.00;2.70;;;15.90;99.90;;;;;;4956519;28;20477;-77
2021/08/13 04:20:08;;;;;;;2.75;2.55;;;15.90;99.90;;;;;;4956219;28;20404;-78
2021/08/13 04:22:37;;;;;;;2.60;2.40;;;15.90;99.90;;;;;;4974282;28;20487;-78
2021/08/13 04:25:04;;;;;;;3.03;2.80;;;16.00;99.90;;;;;;4957556;28;20424;-77
2021/08/13 04:27:30;;;;;;;3.38;2.53;;;16.00;99.90;;;;;;4956701;28;20421;-77
2021/08/13 04:29:56;;;;;;;2.95;2.72;;;16.00;99.90;;;;;;4973168;28;20412;-78
2021/08/13 04:32:21;;;;;;;2.78;2.58;;;16.00;99.90;;;;;;4977024;28;20400;-77
2021/08/13 04:34:47;;;;;;;2.87;2.67;;;16.10;99.90;;;;;;4971731;28;20412;-77
2021/08/13 04:37:15;;;;;;;2.42;2.22;;;16.10;99.90;;;;;;4988411;28;20467;-77
2021/08/13 04:39:42;;;;;;;2.83;2.53;;;16.10;99.90;;;;;;4988085;28;20395;-77
2021/08/13 04:42:08;;;;;;;3.03;2.63;;;16.10;99.90;;;;;;4970796;28;20424;-78
2021/08/13 04:44:34;;;;;;;3.00;2.70;;;16.20;99.90;;;;;;4968491;28;20750;-77
2021/08/13 04:47:00;;;;;;;2.50;2.30;;;16.20;99.90;;;;;;4955922;28;20418;-77
2021/08/13 04:49:27;;;;;;;2.97;2.78;;;16.30;99.90;;;;;;4984332;28;20402;-77
2021/08/13 04:51:53;;;;;;;2.63;2.43;;;16.30;99.90;;;;;;4956018;28;20728;-77
2021/08/13 04:54:19;;;;;;;3.40;2.67;;;16.40;99.90;;;;;;4967334;28;20399;-77
2021/08/13 04:56:45;;;;;;;3.60;3.30;;;16.50;99.90;;;;;;4970689;28;21077;-78
2021/08/13 04:59:10;;;;;;;3.23;2.93;;;16.60;99.90;;;;;;4955839;28;20391;-77
2021/08/13 05:01:46;;;;;;;4.10;2.90;;;16.60;99.90;;;;;;4986241;28;20423;-77
2021/08/13 05:04:12;;;;;;;3.20;2.90;;;16.60;99.90;;;;;;4970570;28;20893;-77
2021/08/13 05:06:38;;;;;;;3.25;2.72;;;16.70;99.90;;;;;;4971306;28;20395;-77
2021/08/13 05:09:03;;;;;;;3.37;2.93;;;16.80;99.90;;;;;;4972363;28;20393;-77
2021/08/13 05:11:29;;;;;;;3.60;3.30;;;16.90;99.90;;;;;;4969365;28;20470;-77
2021/08/13 05:13:55;;;;;;;3.10;2.90;;;17.00;99.90;;;;;;4971950;28;20376;-77
2021/08/13 05:16:21;;;;;;;3.05;2.75;;;17.10;99.90;;;;;;4955135;28;20944;-77
2021/08/13 05:18:47;;;;;;;2.95;2.75;;;17.20;99.90;;;;;;4971528;28;20918;-77
2021/08/13 05:21:13;;;;;;;3.28;2.53;;;17.20;99.90;;;;;;4986988;28;20397;-76
2021/08/13 05:23:39;;;;;;;3.30;3.00;;;17.30;99.90;;;;;;4938203;28;20470;-76
2021/08/13 05:26:04;;;;;;;3.10;2.80;;;17.40;99.90;;;;;;4968930;28;20389;-76
2021/08/13 05:28:30;;;;;;;2.63;2.42;;;17.40;99.90;;;;;;4949413;28;20411;-76
2021/08/13 05:30:57;;;;;;;3.28;2.97;;;17.50;99.90;;;;;;4983826;28;20405;-76
2021/08/13 05:33:24;;;;;;;4.50;3.00;;;17.60;99.90;;;;;;4965575;28;20942;-76
2021/08/13 05:35:49;;;;;;;3.53;3.23;;;17.60;99.90;;;;;;4965082;28;20402;-76
2021/08/13 05:38:15;;;;;;;3.40;3.10;;;17.70;99.90;;;;;;4968793;28;20411;-76
2021/08/13 05:40:42;;;;;;;3.40;3.10;;;17.70;99.90;;;;;;4985733;28;20401;-76
2021/08/13 05:43:09;;;;;;;3.00;2.75;;;17.80;99.90;;;;;;4970487;28;20428;-76
2021/08/13 05:45:35;;;;;;;2.83;2.63;;;17.90;99.90;;;;;;4969670;28;20816;-76
2021/08/13 05:48:01;;;;;;;4.00;3.40;;;18.00;99.90;;;;;;4971548;28;20459;-76
2021/08/13 05:50:27;;;;;;;2.70;2.50;;;18.10;99.90;;;;;;4969541;28;20432;-77
2021/08/13 05:52:53;;;;;;;2.97;2.78;;;18.20;99.90;;;;;;4986134;28;20476;-77
2021/08/13 05:55:19;;;;;;;3.40;3.10;;;18.20;99.90;;;;;;4969772;28;20389;-76
2021/08/13 05:57:45;;;;;;;3.03;2.80;;;18.30;99.90;;;;;;4969697;28;20447;-76
2021/08/13 06:00:11;;;;;;;3.10;2.83;;;18.50;99.90;;;;;;4966850;28;20481;-76
2021/08/13 06:02:58;;;;;;;3.33;3.13;;;18.60;99.90;;;;;;4968169;28;20443;-76
2021/08/13 06:05:26;;;;;;;3.22;2.97;;;18.80;99.90;;;;;;4970823;28;20900;-76
2021/08/13 06:07:55;;;;;;;3.80;3.40;;;18.90;99.90;;;;;;4970429;28;20412;-76
2021/08/13 06:10:21;;;;;;;3.13;2.83;;;19.00;99.90;;;;;;4985790;28;20427;-76
2021/08/13 06:12:47;;;;;;;3.40;3.10;;;19.20;99.90;;;;;;4966678;28;20453;-77
2021/08/13 06:15:14;;;;;;;3.88;3.58;;;19.20;99.90;;;;;;5000529;28;20450;-76
2021/08/13 06:17:41;;;;;;;4.38;3.05;;;19.20;99.90;;;;;;4969280;28;20884;-76
2021/08/13 06:20:08;;;;;;;3.42;2.72;;;19.30;99.90;;;;;;4970048;28;20476;-76
2021/08/13 06:22:34;;;;;;;2.92;2.55;;;19.40;99.90;;;;;;4969862;28;20912;-76
2021/08/13 06:25:00;;;;;;;3.33;3.05;;;19.60;99.90;;;;;;4969030;28;20519;-76
2021/08/13 06:27:26;;;;;;;3.05;2.80;;;19.70;99.90;;;;;;4982425;28;20868;-76
2021/08/13 06:29:52;;;;;;;3.50;3.20;;;19.80;99.90;;;;;;5005014;28;20400;-76
2021/08/13 06:32:19;;;;;;;3.45;3.25;;;20.00;99.90;;;;;;4969079;28;20402;-77
2021/08/13 06:34:46;;;;;;;2.80;2.60;;;20.10;99.90;;;;;;4953901;28;20394;-76
2021/08/13 06:37:12;;;;;;;2.90;2.70;;;20.30;99.90;;;;;;4954760;28;20406;-76
2021/08/13 06:39:38;;;;;;;3.10;2.90;;;20.40;99.90;;;;;;4954072;28;20456;-77
2021/08/13 06:42:04;;;;;;;3.00;2.70;;;20.50;99.90;;;;;;4965289;28;20550;-77
2021/08/13 06:44:33;;;;;;;4.20;3.05;;;20.60;99.90;;;;;;5003956;28;20406;-77
2021/08/13 06:46:58;;;;;;;3.50;3.20;;;20.70;99.90;;;;;;5002226;28;20436;-77
2021/08/13 06:49:26;;;;;;;2.85;2.65;;;20.70;99.90;;;;;;4969531;28;20460;-77
2021/08/13 06:51:51;;;;;;;3.00;2.80;;;20.70;99.90;;;;;;4982613;28;20401;-77
2021/08/13 06:54:17;;;;;;;2.78;2.50;;;20.80;99.90;;;;;;4990284;28;20480;-77
2021/08/13 06:56:44;;;;;;;2.90;2.70;;;21.00;99.90;;;;;;4973008;28;20419;-77
2021/08/13 06:59:09;;;;;;;2.20;2.00;;;21.20;99.90;;;;;;4989073;28;20381;-77
2021/08/13 07:01:35;;;;;;;2.80;2.55;;;21.30;99.90;;;;;;4972126;28;20404;-76
2021/08/13 07:04:01;;;;;;;2.67;2.47;;;21.40;99.90;;;;;;4972514;28;20817;-76
2021/08/13 07:06:27;;;;;;;2.67;2.47;;;21.50;99.90;;;;;;4956586;28;20923;-77
2021/08/13 07:08:55;;;;;;;2.80;2.60;;;21.50;99.90;;;;;;4972984;28;20403;-76
2021/08/13 07:11:22;;;;;;;2.83;2.60;;;21.50;99.90;;;;;;4956805;28;21168;-76
2021/08/13 07:13:48;;;;;;;2.65;2.45;;;21.60;99.90;;;;;;4972321;28;20401;-76
2021/08/13 07:16:14;;;;;;;3.08;2.88;;;21.60;99.90;;;;;;4988530;28;20400;-76
2021/08/13 07:18:40;;;;;;;2.63;2.42;;;21.60;99.90;;;;;;4972402;28;20808;-76
2021/08/13 07:21:06;;;;;;;3.35;3.05;;;21.60;99.90;;;;;;5004589;28;20381;-77
2021/08/13 07:23:33;;;;;;;5.32;3.72;;;21.60;99.90;;;;;;4957755;28;20457;-76
2021/08/13 07:25:59;;;;;;;3.10;2.90;;;21.60;99.90;;;;;;4984864;28;20485;-76
2021/08/13 07:28:24;;;;;;;3.87;3.43;;;21.50;99.90;;;;;;4988355;28;20440;-76
2021/08/13 07:30:50;;;;;;;3.30;3.00;;;21.50;99.90;;;;;;4971456;28;20412;-76
2021/08/13 07:33:18;;;;;;;3.00;2.80;;;21.60;99.90;;;;;;4980886;28;20395;-76
2021/08/13 07:35:43;;;;;;;3.90;3.50;;;21.70;99.90;;;;;;4985395;28;20432;-76
2021/08/13 07:38:09;;;;;;;3.63;3.27;;;21.80;99.90;;;;;;4985260;28;20413;-77
2021/08/13 07:40:35;;;;;;;5.45;3.08;;;22.00;99.90;;;;;;4983901;28;20391;-76
2021/08/13 07:43:01;;;;;;;3.42;3.13;;;22.10;99.90;;;;;;4964732;28;20390;-76
2021/08/13 07:45:27;;;;;;;3.92;2.85;;;22.40;99.90;;;;;;4985625;28;20398;-76
2021/08/13 07:47:53;;;;;;;2.95;2.50;;;22.60;99.90;;;;;;5014115;28;20882;-77
2021/08/13 07:50:18;;;;;;;3.87;3.17;;;23.00;99.90;;;;;;4985445;28;20390;-76
2021/08/13 07:52:44;;;;;;;3.03;2.83;;;23.30;99.90;;;;;;4985197;28;20459;-77
2021/08/13 07:55:13;;;;;;;3.00;2.80;;;23.50;99.90;;;;;;4985853;28;20394;-76
2021/08/13 07:57:39;;;;;;;2.95;2.75;;;23.70;99.90;;;;;;4952945;28;20421;-76
2021/08/13 08:00:09;;;;;;;3.13;2.83;;;23.90;99.90;;;;;;4985241;28;20410;-77
2021/08/13 08:02:48;;;;;;;2.92;2.70;;;24.10;99.90;;;;;;4985462;28;20406;-76
2021/08/13 08:05:13;;;;;;;3.35;3.00;;;24.20;99.90;;;;;;4984657;28;20397;-76
2021/08/13 08:07:39;;;;;;;2.80;2.60;;;24.30;99.90;;;;;;4984599;28;20887;-76
2021/08/13 08:10:05;;;;;;;3.13;2.83;;;24.40;99.90;;;;;;4984688;28;20459;-76
2021/08/13 08:12:31;;;;;;;2.83;2.53;;;24.50;99.90;;;;;;5002794;28;20445;-76
2021/08/13 08:14:56;;;;;;;2.53;2.33;;;24.60;99.90;;;;;;4953776;28;20788;-76
2021/08/13 08:17:22;;;;;;;4.73;2.80;;;24.90;99.90;;;;;;4951765;28;20958;-77
2021/08/13 08:19:47;;;;;;;3.00;2.63;;;25.30;99.90;;;;;;4998408;28;20390;-76
2021/08/13 08:22:13;;;;;;;2.53;2.33;;;25.60;99.90;;;;;;4967244;28;20412;-76
2021/08/13 08:24:40;;;;;;;3.63;2.47;;;25.80;99.90;;;;;;4971309;28;20393;-77
2021/08/13 08:27:06;;;;;;;5.07;2.58;;;26.10;99.90;;;;;;4987270;28;20412;-77
2021/08/13 08:29:32;;;;;;;2.70;2.50;;;26.10;99.90;;;;;;4997679;28;20399;-77
2021/08/13 08:31:57;;;;;;;3.10;2.20;;;26.10;99.90;;;;;;4954131;28;20402;-77
2021/08/13 08:34:23;;;;;;;2.70;2.30;;;26.30;99.90;;;;;;4967588;28;21127;-77
2021/08/13 08:36:48;;;;;;;2.78;2.50;;;26.30;99.90;;;;;;4967998;28;20810;-77
2021/08/13 08:39:14;;;;;;;2.45;2.25;;;26.50;99.90;;;;;;4968678;28;20411;-77
2021/08/13 08:41:41;;;;;;;2.23;2.03;;;26.80;99.90;;;;;;4982810;28;20421;-76
2021/08/13 08:44:07;;;;;;;2.65;2.45;;;27.00;99.90;;;;;;4989533;28;20399;-77
2021/08/13 08:46:32;;;;;;;2.30;2.10;;;27.30;99.90;;;;;;4987215;28;20790;-76
2021/08/13 08:48:58;;;;;;;1.90;1.80;;;27.50;99.90;;;;;;4970542;28;20970;-77
2021/08/13 08:51:24;;;;;;;2.20;2.00;;;27.80;99.90;;;;;;4983230;28;20398;-76
2021/08/13 08:53:54;;;;;;;2.95;2.28;;;27.90;99.90;;;;;;4951945;28;20777;-77
2021/08/13 08:56:22;;;;;;;2.25;2.15;;;28.00;99.90;;;;;;4951799;28;20903;-77
2021/08/13 08:58:47;;;;;;;3.65;2.47;;;28.10;99.90;;;;;;4983223;28;20397;-77
2021/08/13 09:01:14;;;;;;;2.17;2.00;;;28.20;99.90;;;;;;4982614;28;20470;-77
2021/08/13 09:03:41;;;;;;;2.60;2.40;;;28.40;99.90;;;;;;4983099;28;20637;-77
2021/08/13 09:06:07;;;;;;;2.38;2.15;;;28.60;99.90;;;;;;4966903;28;20394;-77
2021/08/13 09:08:32;;;;;;;2.20;2.00;;;28.60;99.90;;;;;;4951397;28;21093;-77
2021/08/13 09:10:58;;;;;;;2.33;2.13;;;28.40;99.90;;;;;;4956678;28;20451;-77
2021/08/13 09:13:24;;;;;;;2.30;2.10;;;28.50;99.90;;;;;;4967567;28;20891;-77
2021/08/13 09:15:49;;;;;;;2.17;2.07;;;28.60;99.90;;;;;;4950858;28;21037;-77
2021/08/13 09:18:24;;;;;;;2.55;2.35;;;28.60;99.90;;;;;;4955497;28;20425;-77
2021/08/13 09:20:51;;;;;;;1.95;1.85;;;28.60;99.90;;;;;;4979874;28;20397;-77
2021/08/13 09:23:37;;;;;;;2.38;2.17;;;28.70;99.90;;;;;;4987395;28;20401;-77
2021/08/13 09:26:07;;;;;;;2.28;2.08;;;28.90;99.90;;;;;;4987104;28;20389;-77
2021/08/13 09:28:52;;;;;;;2.13;2.03;;;29.10;99.90;;;;;;5011483;28;20412;-77
2021/08/13 09:31:31;;;;;;;2.50;2.30;;;29.20;99.90;;;;;;4969894;28;20427;-77
2021/08/13 09:34:08;;;;;;;2.25;2.05;;;29.40;99.90;;;;;;5002730;28;20401;-77
2021/08/13 09:36:35;;;;;;;2.85;2.65;;;29.60;99.90;;;;;;4971342;28;20885;-77
2021/08/13 09:39:06;;;;;;;2.47;2.27;;;29.60;99.90;;;;;;4973272;28;20397;-77
2021/08/13 09:41:48;;;;;;;2.40;2.10;;;29.40;99.90;;;;;;4990923;28;20404;-77
2021/08/13 09:44:31;;;;;;;1.80;1.70;;;29.60;99.90;;;;;;4987250;28;20495;-77
2021/08/13 09:47:05;;;;;;;2.22;2.08;;;30.00;99.90;;;;;;4986643;28;20443;-77
2021/08/13 09:49:35;;;;;;;3.55;2.17;;;30.40;99.90;;;;;;5002621;28;20484;-77
2021/08/13 09:52:14;;;;;;;1.83;1.73;;;30.70;99.90;;;;;;4988218;28;20404;-76
2021/08/13 09:54:40;;;;;;;2.10;2.00;;;31.00;99.90;;;;;;4969498;28;20497;-77
2021/08/13 09:57:10;;;;;;;4.43;2.05;;;31.20;99.90;;;;;;4985749;28;20397;-77
2021/08/13 09:59:36;;;;;;;2.33;2.13;;;31.40;99.90;;;;;;4970231;28;20422;-77
2021/08/13 10:02:12;;;;;;;2.05;1.95;;;31.50;99.90;;;;;;4969430;28;20420;-77
2021/08/13 10:04:37;;;;;;;2.38;2.17;;;31.60;99.90;;;;;;4969782;28;20400;-77
2021/08/13 10:07:04;;;;;;;2.40;2.20;;;31.80;99.90;;;;;;4969701;28;20413;-77
2021/08/13 10:09:30;;;;;;;2.40;2.20;;;32.20;99.90;;;;;;4970327;28;20757;-77
2021/08/13 10:12:02;;;;;;;2.17;2.08;;;32.10;99.90;;;;;;4987602;28;20910;-77
2021/08/13 10:14:42;;;;;;;1.90;1.80;;;32.30;99.90;;;;;;4991536;28;20396;-77
2021/08/13 10:17:18;;;;;;;2.00;1.90;;;32.50;99.90;;;;;;4977134;28;20406;-76
2021/08/13 10:19:51;;;;;;;2.50;1.73;;;32.70;99.90;;;;;;4962851;28;20408;-77
2021/08/13 10:22:19;;;;;;;2.28;2.08;;;32.70;99.90;;;;;;4976115;28;20400;-77
2021/08/13 10:24:45;;;;;;;1.95;1.85;;;32.80;99.90;;;;;;4976898;28;20463;-77
2021/08/13 10:27:12;;;;;;;2.20;2.00;;;32.90;99.70;;;;;;4975716;28;20420;-77
2021/08/13 10:29:38;;;;;;;1.88;1.77;;;33.20;99.20;;;;;;4972783;28;20398;-77
2021/08/13 10:32:04;;;;;;;2.10;1.88;;;33.30;98.10;;;;;;4975490;28;20395;-77
2021/08/13 10:34:30;;;;;;;1.97;1.80;;;33.40;97.20;;;;;;4956591;28;20402;-77
2021/08/13 10:36:56;;;;;;;2.05;1.92;;;33.70;99.70;;;;;;4974890;28;20429;-78
2021/08/13 10:39:23;;;;;;;2.10;2.00;;;33.90;94.80;;;;;;4958681;28;20449;-77
2021/08/13 10:41:59;;;;;;;2.28;1.88;;;33.60;92.20;;;;;;4966530;28;20408;-77
2021/08/13 10:44:31;;;;;;;1.85;1.75;;;33.50;96.80;;;;;;4989084;28;20414;-77
2021/08/13 10:46:59;;;;;;;2.33;2.13;;;34.00;96.40;;;;;;4956084;28;20418;-78
2021/08/13 10:49:25;;;;;;;1.85;1.75;;;34.20;91.90;;;;;;4969445;28;20398;-77
2021/08/13 10:52:04;;;;;;;1.95;1.85;;;34.60;98.00;;;;;;4975501;28;20423;-77
2021/08/13 10:54:40;;;;;;;1.90;1.80;;;34.60;92.00;;;;;;4976369;28;20401;-77
2021/08/13 10:57:08;;;;;;;1.90;1.80;;;34.50;91.50;;;;;;4991917;28;20483;-77
2021/08/13 10:59:40;;;;;;;1.95;1.85;;;34.70;91.50;;;;;;4976070;28;20815;-77
2021/08/13 11:02:13;;;;;;;1.92;1.83;;;34.80;92.70;;;;;;5007008;28;20400;-77
2021/08/13 11:04:50;;;;;;;2.47;2.10;;;34.90;91.20;;;;;;4977666;28;20479;-77
2021/08/13 11:07:55;;;;;;;1.85;1.70;;;35.10;92.00;;;;;;4976116;28;20479;-77
2021/08/13 11:10:39;;;;;;;2.00;1.90;;;35.30;92.60;;;;;;5007643;28;20393;-77
2021/08/13 11:13:14;;;;;;;2.00;1.90;;;35.70;91.90;;;;;;5000030;28;20417;-78
2021/08/13 11:15:42;;;;;;;1.80;1.70;;;35.70;89.60;;;;;;4988212;28;20413;-77
2021/08/13 11:18:27;;;;;;;1.70;1.60;;;35.80;84.80;;;;;;4959650;28;20426;-78
2021/08/13 11:20:53;;;;;;;2.60;1.70;;;35.50;83.70;;;;;;5001949;28;21079;-78
2021/08/13 11:23:19;;;;;;;2.45;2.25;;;35.60;78.00;;;;;;4972631;28;20427;-77
2021/08/13 11:25:46;;;;;;;2.20;2.00;;;35.70;88.10;;;;;;4969077;28;20496;-78
2021/08/13 11:28:18;;;;;;;2.33;2.13;;;35.90;81.80;;;;;;4988045;28;20421;-77
2021/08/13 11:30:46;;;;;;;2.38;2.17;;;36.10;87.90;;;;;;4967669;28;20430;-77
2021/08/13 11:33:26;;;;;;;3.03;2.20;;;35.70;76.10;;;;;;4978638;28;20406;-76
2021/08/13 11:35:54;;;;;;;1.73;1.63;;;35.60;75.90;;;;;;5007636;28;20390;-77
2021/08/13 11:38:41;;;;;;;2.08;1.92;;;35.60;81.60;;;;;;4938372;28;20401;-78
2021/08/13 11:41:22;;;;;;;2.10;2.00;;;35.90;87.30;;;;;;4994127;28;20944;-78
2021/08/13 11:43:55;;;;;;;2.83;2.40;;;36.10;80.90;;;;;;5016002;28;20406;-78
2021/08/13 11:46:31;;;;;;;2.30;2.10;;;35.80;73.10;;;;;;4958515;28;20429;-77
2021/08/13 11:49:02;;;;;;;2.25;1.90;;;35.80;80.80;;;;;;4987790;28;20428;-78
2021/08/13 11:51:29;;;;;;;2.15;2.05;;;35.80;78.70;;;;;;4983040;28;20403;-78
2021/08/13 11:53:55;;;;;;;2.53;2.33;;;36.10;79.30;;;;;;4993362;28;20395;-77
2021/08/13 11:56:25;;;;;;;2.20;2.00;;;36.40;77.40;;;;;;4998447;28;20391;-78
2021/08/13 11:58:58;;;;;;;2.60;2.40;;;36.60;82.30;;;;;;4994746;28;20414;-77
2021/08/13 12:01:24;;;;;;;1.67;1.58;;;36.70;77.80;;;;;;4986855;28;20426;-77
2021/08/13 12:03:52;;;;;;;1.95;1.85;;;36.80;74.20;;;;;;4999851;28;20476;-78
2021/08/13 12:06:17;;;;;;;3.40;1.80;;;36.90;73.50;;;;;;4986792;28;20451;-77
2021/08/13 12:08:50;;;;;;;2.53;2.33;;;37.10;72.00;;;;;;4967856;28;20409;-78
2021/08/13 12:11:22;;;;;;;2.27;2.07;;;37.30;74.00;;;;;;4974759;28;20412;-77
2021/08/13 12:13:47;;;;;;;3.75;2.50;;;37.30;77.60;;;;;;4969957;28;20410;-77
2021/08/13 12:16:17;;;;;;;2.58;2.38;;;37.50;70.80;;;;;;4964755;28;20393;-78
2021/08/13 12:18:43;;;;;;;2.80;2.60;;;37.50;75.30;;;;;;4973632;28;20429;-77
2021/08/13 12:21:08;;;;;;;2.30;2.10;;;37.50;77.00;;;;;;4991486;28;20421;-78
2021/08/13 12:23:37;;;;;;;2.58;2.38;;;37.50;72.30;;;;;;4983208;28;20482;-78
2021/08/13 12:26:04;;;;;;;2.13;2.03;;;37.80;74.90;;;;;;4968752;28;20424;-78
2021/08/13 12:28:31;;;;;;;2.33;2.13;;;38.00;74.40;;;;;;4968173;28;20472;-77
2021/08/13 12:31:23;;;;;;;2.70;2.45;;;38.10;68.10;;;;;;5000868;28;20408;-78
2021/08/13 12:33:53;;;;;;;2.83;2.00;;;38.00;73.30;;;;;;4970206;28;20490;-78
2021/08/13 12:36:20;;;;;;;1.98;1.88;;;38.10;70.60;;;;;;4988288;28;20397;-77
2021/08/13 12:38:53;;;;;;;2.40;2.20;;;38.20;70.60;;;;;;4989443;28;20980;-77
2021/08/13 12:41:18;;;;;;;2.25;2.05;;;38.30;75.70;;;;;;4969040;28;20482;-78
2021/08/13 12:43:45;;;;;;;2.55;2.35;;;38.10;67.70;;;;;;4969362;28;20496;-78
2021/08/13 12:46:10;;;;;;;2.28;2.10;;;38.20;65.00;;;;;;4965167;28;21130;-78
2021/08/13 12:48:36;;;;;;;2.47;2.28;;;38.30;67.90;;;;;;4966433;28;20416;-78
2021/08/13 12:51:02;;;;;;;2.75;2.55;;;38.40;62.10;;;;;;4968716;28;20467;-78
2021/08/13 12:53:34;;;;;;;2.70;2.50;;;38.50;70.40;;;;;;4969028;28;20774;-78
2021/08/13 12:56:01;;;;;;;2.60;2.40;;;38.50;65.50;;;;;;4985946;28;20409;-78